• Join FlightAware (Why Join?)
  • Login
  • US Flag 
05:35PM EDT


 

Airport Tracker/Info


-or-


 

Live Flight TrackerFlight Track Log ✈ SKW5606 ✈ 17-Apr-2013 ✈ KORD - KHPN

Flight Track Log - Related Links

Times and Time Zones

All times are in EDT time to prevent confusion due to time zone crossing. See the SKW5606 flight status page for this flight to view local times or setup timezone preferences in your user account.

Time Position Orientation Groundspeed Altitude Reporting Facility
EDT Latitude Longitude Course Direction KTS MPH feet Rate Location/Type
08:26AM 42.0167 -87.8333 90° East 196 226 3,800  Level Chicago TRACON
08:27AM 42.0500 -87.7500 62° Northeast 266 306 6,400 2,280 Climbing Chicago TRACON
08:29AM 42.0983 -87.0604 77° East  Level FlightAware Approximate
08:29AM 42.0708 -87.4867 84° East 325 374 11,800  Level Chicago Center
08:30AM 42.1167 -86.8901 90° East  Level FlightAware Approximate
08:30AM 42.0872 -87.3306 82° East 348 400 14,800  Level Chicago Center
08:31AM 42.1167 -86.7420 90° East  Level FlightAware Approximate
08:31AM 42.0994 -87.1989 83° East 354 407 16,500  Level Chicago Center
08:33AM 42.1122 -87.0556 83° East 380 437 17,900 1,560 Climbing Chicago Center
08:34AM 42.1181 -86.9117 87° East 386 444 19,800 1,680 Climbing Chicago Center
08:35AM 42.1228 -86.7661 87° East 390 449 21,400 1,260 Climbing Chicago Center
08:36AM 42.1283 -86.6206 87° East 405 466 22,500 1,200 Climbing Chicago Center
08:37AM 42.1344 -86.4325 87° East 417 480 24,000 1,260 Climbing Chicago Center
08:38AM 42.1392 -86.2725 88° East 426 490 25,200 1,140 Climbing Chicago Center
08:39AM 42.1442 -86.1097 88° East 431 496 26,400 1,020 Climbing Chicago Center
08:40AM 42.1422 -85.9325 91° East 438 504 27,400 960 Climbing Chicago Center
08:41AM 42.1414 -85.7653 90° East 446 513 28,400 720 Climbing Chicago Center
08:42AM 42.1383 -85.5981 91° East 448 516 29,000 240 Climbing Chicago Center
08:43AM 42.1367 -85.4197 91° East 470 541 29,000 420 Level Chicago Center
08:44AM 42.1358 -85.2011 90° East 462 532 30,000 780 Climbing Cleveland Center
08:45AM 42.1367 -85.0219 90° East 467 537 30,700 660 Climbing Cleveland Center
08:46AM 42.1350 -84.8453 91° East 467 537 31,400 660 Climbing Cleveland Center
08:47AM 42.1481 -84.6642 84° East 472 543 32,100 660 Climbing Cleveland Center
08:48AM 42.1556 -84.5075 86° East 472 543 32,800 420 Climbing Cleveland Center
08:49AM 42.1700 -84.3264 84° East 477 549 33,000 60 Climbing Cleveland Center
08:50AM 42.1839 -84.1506 84° East 477 549 33,000  Level Cleveland Center
08:51AM 42.1975 -83.9719 84° East 477 549 33,000  Level Cleveland Center
08:53AM 42.2197 -83.6308 85° East 465 535 33,000  Level Cleveland Center
08:54AM 42.2325 -83.4550 84° East 458 527 33,000  Level Cleveland Center
08:55AM 42.2469 -83.2872 83° East 453 521 33,000  Level Cleveland Center
08:56AM 42.2556 -83.0994 86° East 453 521 33,000  Level Cleveland Center
08:57AM 42.2672 -82.9344 84° East 453 521 33,000  Level Cleveland Center
08:58AM 42.2769 -82.7636 86° East 453 521 33,000  Level Cleveland Center
08:59AM 42.2883 -82.5956 85° East 453 521 33,000  Level Cleveland Center
09:00AM 42.2972 -82.4303 86° East 447 514 33,000  Level Cleveland Center
09:01AM 42.3083 -82.2592 85° East 447 514 33,000  Level Cleveland Center
09:02AM 42.3169 -82.0911 86° East 447 514 33,000  Level Cleveland Center
09:03AM 42.3272 -81.9425 85° East 447 514 33,000  Level Cleveland Center
09:04AM 42.3353 -81.7714 86° East 447 514 33,000  Level Cleveland Center
09:05AM 42.3453 -81.6028 85° East 447 514 33,000  Level Cleveland Center
09:06AM 42.3528 -81.4344 86° East 447 514 33,000  Level Cleveland Center
09:07AM 42.3622 -81.2661 86° East 447 514 33,000  Level Cleveland Center
09:08AM 42.3717 -81.0806 86° East 447 514 33,000  Level Cleveland Center
09:09AM 42.3806 -80.9092 86° East 452 520 33,000  Level Cleveland Center
09:10AM 42.3872 -80.7406 87° East 452 520 33,000  Level Cleveland Center
09:11AM 42.3914 -80.5747 88° East 446 513 33,000  Level Cleveland Center
09:12AM 42.4017 -80.4089 85° East 439 505 33,000  Level Cleveland Center
09:13AM 42.4075 -80.2372 87° East 447 514 33,000  Level Cleveland Center
09:14AM 42.4175 -80.0686 85° East 447 514 33,000  Level Cleveland Center
09:15AM 42.4208 -79.9139 88° East 447 514 33,000  Level Cleveland Center
09:16AM 42.4258 -79.7197 88° East 457 526 33,000  Level Cleveland Center
09:17AM 42.4328 -79.5647 86° East 462 532 33,000  Level Cleveland Center
09:18AM 42.4394 -79.3875 87° East 462 532 33,000  Level Cleveland Center
09:19AM 42.4436 -79.2103 88° East 468 539 33,000  Level Cleveland Center
09:20AM 42.4497 -79.0328 87° East 468 539 33,000  Level Cleveland Center
09:21AM 42.4556 -78.8497 87° East 475 547 33,000  Level Cleveland Center
09:22AM 42.4592 -78.6750 88° East 475 547 33,000  Level Cleveland Center
09:23AM 42.4644 -78.5003 88° East 475 547 33,000  Level Cleveland Center
09:24AM 42.4694 -78.3256 88° East 468 539 33,000  Level Cleveland Center
09:25AM 42.4722 -78.1567 89° East 458 527 33,000  Level Cleveland Center
09:26AM 42.4747 -77.9847 89° East 458 527 33,000  Level Cleveland Center
09:27AM 42.4789 -77.8017 88° East 458 527 33,000  Level Cleveland Center
09:28AM 42.4808 -77.6297 89° East 453 521 33,000  Level Cleveland Center
09:29AM 42.4847 -77.4578 88° East 453 521 33,000  Level Cleveland Center
09:31AM 42.4889 -77.1853 89° East 462 532 33,000  Level Boston Center
09:32AM 42.4897 -77.0133 90° East 456 525 33,000  Level Boston Center
09:33AM 42.4922 -76.8417 89° East 456 525 33,000  Level Boston Center
09:34AM 42.4947 -76.6700 89° East 456 525 33,000  Level Boston Center
09:35AM 42.4936 -76.5264 91° East 461 531 33,000 -60 Level Boston Center
09:36AM 42.4653 -76.3244 101° East 456 525 32,900 -540 Descending Boston Center
09:37AM 42.4333 -76.1564 104° East 456 525 32,000 -900 Descending Boston Center
09:38AM 42.3969 -75.9883 106° East 461 531 31,100 -1,320 Descending Boston Center
09:39AM 42.3622 -75.8292 106° East 456 525 29,500 -1,920 Descending Boston Center
09:40AM 42.3294 -75.6700 106° East 450 518 27,400 -2,100 Descending Boston Center
09:41AM 42.2981 -75.5194 106° East 436 502 25,300 -1,920 Descending Boston Center
09:42AM 42.2744 -75.3919 104° East 436 502 23,600 -2,100 Descending Boston Center
09:43AM 42.2369 -75.2219 107° East 413 475 21,200 -2,160 Descending Boston Center
09:44AM 42.2086 -75.1031 108° East 394 453 19,400 -1,620 Descending Boston Center
09:45AM 42.1783 -74.9728 107° East 377 434 18,000 -720 Descending Boston Center
09:46AM 42.1350 -74.8564 117° Southeast 352 405 18,000  Level Boston Center
09:47AM 42.0767 -74.7561 128° Southeast 346 398 18,000 -660 Level Boston Center
09:48AM 42.0058 -74.6531 133° Southeast 335 386 16,700 -1,320 Descending Boston Center
09:49AM 41.9447 -74.5697 135° Southeast 317 365 15,400 -1,200 Descending Boston Center
09:50AM 41.8961 -74.5011 134° Southeast 317 365 14,300 -1,500 Descending Boston Center
09:51AM 41.8228 -74.4014 135° Southeast 312 359 12,500 -1,620 Descending Boston Center
09:52AM 41.7617 -74.3214 136° Southeast 312 359 11,200 -780 Descending Boston Center
09:53AM 41.7025 -74.2419 135° Southeast 312 359 11,000 -300 Descending Boston Center
09:54AM 41.6453 -74.1625 134° Southeast 307 353 10,700 -780 Descending Boston Center
09:55AM 41.5881 -74.0889 136° Southeast 299 344 9,500 -1,200 Descending Boston Center
09:55AM 41.5667 -74.0500 126° Southeast 279 321 9,100 -1,320 Descending New York TRACON
09:56AM 41.5167 -73.9833 135° Southeast 278 320 7,800 -1,440 Descending New York TRACON
09:57AM 41.4667 -73.9167 135° Southeast 274 315 6,300 -1,440 Descending New York TRACON
09:58AM 41.4000 -73.8500 143° Southeast 264 304 4,900 -1,140 Descending New York TRACON
09:59AM 41.3333 -73.7833 143° Southeast 234 269 4,000 -840 Descending New York TRACON
10:00AM 41.3000 -73.7500 143° Southeast 229 264 3,300 -540 Descending New York TRACON
10:01AM 41.2500 -73.6833 135° Southeast 225 259 3,000 -180 Descending New York TRACON
10:02AM 41.2000 -73.6500 153° Southeast 212 244 3,000  Level New York TRACON
10:03AM 41.1333 -73.6333 169° South 199 229 3,000  Level New York TRACON
10:04AM 41.1000 -73.6000 143° Southeast 185 213 3,000  Level New York TRACON
10:05AM 41.0500 -73.5667 153° Southeast 185 213 3,000 -180 Level New York TRACON
10:06AM 41.0000 -73.5667 180° South 188 216 2,700 -420 Descending New York TRACON
10:07AM 40.9833 -73.6167 246° West 177 204 2,300 -480 Descending New York TRACON
10:08AM 41.0000 -73.6500 304° West 157 181 1,900 -660 Descending New York TRACON
10:09AM 41.0333 -73.6833 323° Northwest 132 152 1,000 -900 Descending New York TRACON
10:11AM 41.0667 -73.7000 304° West  Level FlightAware Approximate
10:18AM 41.0669 -73.7076 304° West  Level Estimated